createdAt,value
2023-03-27T00:00:44.154Z,5.97
2023-03-27T00:03:12.466Z,5.85
2023-03-27T00:05:40.224Z,5.59
2023-03-27T00:08:09.534Z,5.63
2023-03-27T00:10:37.403Z,5.64
2023-03-27T00:13:06.601Z,5.38
2023-03-27T00:15:34.860Z,5.10
2023-03-27T00:18:04.222Z,5.06
2023-03-27T00:20:33.526Z,5.08
2023-03-27T00:23:02.436Z,4.93
2023-03-27T00:25:30.183Z,5.01
2023-03-27T00:27:58.532Z,5.12
2023-03-27T00:30:28.558Z,4.88
2023-03-27T00:32:56.496Z,4.78
2023-03-27T00:35:24.721Z,4.98
2023-03-27T00:37:52.425Z,4.94
2023-03-27T00:40:20.409Z,4.88
2023-03-27T00:42:49.140Z,4.87
2023-03-27T00:45:18.139Z,4.75
2023-03-27T00:47:47.619Z,4.64
2023-03-27T00:50:17.709Z,4.43
2023-03-27T00:52:47.956Z,4.25
2023-03-27T00:55:17.162Z,4.00
2023-03-27T00:57:46.027Z,3.75
2023-03-27T01:00:17.058Z,3.69
2023-03-27T01:02:47.719Z,3.43
2023-03-27T01:05:15.638Z,3.20
2023-03-27T01:08:00.442Z,3.17
2023-03-27T01:10:35.656Z,3.09
2023-03-27T01:13:08.204Z,2.95
2023-03-27T01:15:41.237Z,3.05
2023-03-27T01:18:23.257Z,2.97
2023-03-27T01:21:23.482Z,2.81
2023-03-27T01:24:23.941Z,2.39
2023-03-27T01:26:59.294Z,2.16
2023-03-27T01:29:32.148Z,2.07
2023-03-27T01:32:17.027Z,1.98
2023-03-27T01:35:02.262Z,1.88
2023-03-27T01:37:50.326Z,1.90
2023-03-27T01:40:19.765Z,1.90
2023-03-27T01:42:48.892Z,1.87
2023-03-27T01:45:18.807Z,1.61
2023-03-27T01:47:48.842Z,1.61
2023-03-27T01:50:20.203Z,1.53
2023-03-27T01:52:50.816Z,1.47
2023-03-27T01:55:20.213Z,1.26
2023-03-27T01:57:50.614Z,1.47
2023-03-27T02:00:22.359Z,1.42
2023-03-27T02:02:52.635Z,1.45
2023-03-27T02:05:24.213Z,1.34
2023-03-27T02:07:54.178Z,1.18
2023-03-27T02:10:25.840Z,1.20
2023-03-27T02:12:56.818Z,1.20
2023-03-27T02:15:26.295Z,1.14
2023-03-27T02:18:04.767Z,1.13
2023-03-27T02:20:33.038Z,1.17
2023-03-27T02:23:01.823Z,1.10
2023-03-27T02:25:32.655Z,1.09
2023-03-27T02:28:13.774Z,1.30
2023-03-27T02:30:43.068Z,1.17
2023-03-27T02:33:14.843Z,1.37
2023-03-27T02:35:48.257Z,1.17
2023-03-27T02:38:18.426Z,1.31
2023-03-27T02:40:56.027Z,1.44
2023-03-27T02:43:58.734Z,1.34
2023-03-27T02:46:45.612Z,1.07
2023-03-27T02:49:15.524Z,1.28
2023-03-27T02:51:44.518Z,1.42
2023-03-27T02:54:13.454Z,1.32
2023-03-27T02:56:44.818Z,1.25
2023-03-27T02:59:23.496Z,1.53
2023-03-27T03:01:51.368Z,1.43
2023-03-27T03:04:25.684Z,1.60
2023-03-27T03:07:08.060Z,1.84
2023-03-27T03:09:40.494Z,1.51
2023-03-27T03:12:10.632Z,1.63
2023-03-27T03:14:44.061Z,1.55
2023-03-27T03:17:12.003Z,1.45
2023-03-27T03:19:39.740Z,1.21
2023-03-27T03:22:08.602Z,1.16
2023-03-27T03:24:41.830Z,1.18
2023-03-27T03:27:14.357Z,1.24
2023-03-27T03:29:52.474Z,1.16
2023-03-27T03:32:23.730Z,1.09
2023-03-27T03:34:52.995Z,1.16
2023-03-27T03:37:21.596Z,1.27
2023-03-27T03:39:49.333Z,1.28
2023-03-27T03:42:22.800Z,1.12
2023-03-27T03:44:52.613Z,1.19
2023-03-27T03:47:22.539Z,1.24
2023-03-27T03:49:51.071Z,1.37
2023-03-27T03:52:19.044Z,1.32
2023-03-27T03:54:47.016Z,1.61
2023-03-27T03:57:15.284Z,1.39
2023-03-27T03:59:47.959Z,1.77
2023-03-27T04:02:31.745Z,1.88
2023-03-27T04:05:11.976Z,1.55
2023-03-27T04:07:41.266Z,1.86
2023-03-27T04:10:21.333Z,1.88
2023-03-27T04:12:49.646Z,2.21
2023-03-27T04:15:44.714Z,2.10
2023-03-27T04:18:20.414Z,1.83
2023-03-27T04:20:49.765Z,1.95
2023-03-27T04:23:19.449Z,1.93
2023-03-27T04:25:47.340Z,2.34
2023-03-27T04:28:21.462Z,2.18
2023-03-27T04:30:58.434Z,2.04
2023-03-27T04:33:46.815Z,2.43
2023-03-27T04:36:26.269Z,2.10
2023-03-27T04:39:23.211Z,1.78
2023-03-27T04:41:51.257Z,1.94
2023-03-27T04:44:19.262Z,1.96
2023-03-27T04:46:49.195Z,1.80
2023-03-27T04:49:19.154Z,1.85
2023-03-27T04:51:53.837Z,1.94
2023-03-27T04:54:23.214Z,2.00
2023-03-27T04:56:51.899Z,1.79
2023-03-27T04:59:21.334Z,2.18
2023-03-27T05:02:07.469Z,2.03
2023-03-27T05:04:44.140Z,2.08
2023-03-27T05:07:16.088Z,1.90
2023-03-27T05:09:43.797Z,2.11
2023-03-27T05:12:11.972Z,2.23
2023-03-27T05:14:49.462Z,2.18
2023-03-27T05:17:35.385Z,2.46
2023-03-27T05:20:04.329Z,2.21
2023-03-27T05:22:35.905Z,1.80
2023-03-27T05:25:16.047Z,1.93
2023-03-27T05:27:47.158Z,1.81
2023-03-27T05:30:17.002Z,1.73
2023-03-27T05:32:48.916Z,1.65
2023-03-27T05:35:24.570Z,2.09
2023-03-27T05:37:54.857Z,1.93
2023-03-27T05:40:27.700Z,1.76
2023-03-27T05:42:56.685Z,1.79
2023-03-27T05:45:29.360Z,1.85
2023-03-27T05:47:59.106Z,1.82
2023-03-27T05:50:28.898Z,1.69
2023-03-27T05:52:59.400Z,1.79
2023-03-27T05:55:35.894Z,1.80
2023-03-27T05:58:03.673Z,1.55
2023-03-27T06:00:34.173Z,1.51
2023-03-27T06:03:04.237Z,1.52
2023-03-27T06:06:00.073Z,1.68
2023-03-27T06:08:31.817Z,1.73
2023-03-27T06:10:59.708Z,1.53
2023-03-27T06:13:36.070Z,1.50
2023-03-27T06:16:10.529Z,1.62
2023-03-27T06:18:49.123Z,1.42
2023-03-27T06:21:18.809Z,1.49
2023-03-27T06:23:47.807Z,1.57
2023-03-27T06:26:18.901Z,1.46
2023-03-27T06:28:47.530Z,1.32
2023-03-27T06:31:17.710Z,1.42
2023-03-27T06:34:11.015Z,1.28
2023-03-27T06:36:46.675Z,1.26
2023-03-27T06:39:14.388Z,1.32
2023-03-27T06:41:49.315Z,1.29
2023-03-27T06:44:37.968Z,1.24
2023-03-27T06:47:13.173Z,1.20
2023-03-27T06:50:00.901Z,1.25
2023-03-27T06:52:29.476Z,1.17
2023-03-27T06:55:14.949Z,1.22
2023-03-27T06:57:51.901Z,1.35
2023-03-27T07:00:23.130Z,1.34
2023-03-27T07:03:10.805Z,1.52
2023-03-27T07:05:58.813Z,1.39
2023-03-27T07:08:29.664Z,1.27
2023-03-27T07:14:00.486Z,1.14
2023-03-27T07:16:31.314Z,1.23
2023-03-27T07:19:01.982Z,1.20
2023-03-27T07:21:33.067Z,1.43
2023-03-27T07:24:01.126Z,1.41
2023-03-27T07:26:33.783Z,1.94
2023-03-27T07:29:14.386Z,1.61
2023-03-27T07:31:57.738Z,1.76
2023-03-27T07:34:38.429Z,2.05
2023-03-27T07:37:39.850Z,2.24
2023-03-27T07:40:36.994Z,2.22
2023-03-27T07:43:27.840Z,2.10
2023-03-27T07:45:56.590Z,2.44
2023-03-27T07:48:27.841Z,2.07
2023-03-27T07:51:03.950Z,1.69
2023-03-27T07:53:43.668Z,1.78
2023-03-27T07:56:22.162Z,2.09
2023-03-27T07:58:53.149Z,1.58
2023-03-27T08:01:22.512Z,1.57
2023-03-27T08:03:50.746Z,1.56
2023-03-27T08:06:20.197Z,1.34
2023-03-27T08:08:50.852Z,1.48
2023-03-27T08:11:29.723Z,1.61
2023-03-27T08:13:58.486Z,1.44
2023-03-27T08:16:29.044Z,1.47
2023-03-27T08:18:58.646Z,1.76
2023-03-27T08:21:28.424Z,2.09
2023-03-27T08:23:58.776Z,2.33
2023-03-27T08:26:29.542Z,2.78
2023-03-27T08:28:59.315Z,2.93
2023-03-27T08:31:31.371Z,2.78
2023-03-27T08:34:01.438Z,3.17
2023-03-27T08:36:39.143Z,2.87
2023-03-27T08:39:09.209Z,2.44
2023-03-27T08:41:55.155Z,2.41
2023-03-27T08:44:33.499Z,2.16
2023-03-27T08:47:07.357Z,1.95
2023-03-27T08:49:45.746Z,1.89
2023-03-27T08:52:32.694Z,2.18
2023-03-27T08:55:08.072Z,2.55
2023-03-27T08:57:40.889Z,2.60
2023-03-27T09:00:16.788Z,2.66
2023-03-27T09:02:46.143Z,3.27
2023-03-27T09:05:17.981Z,2.86
2023-03-27T09:07:48.611Z,3.01
2023-03-27T09:10:32.008Z,3.26
2023-03-27T09:13:05.340Z,3.20
2023-03-27T09:15:39.448Z,2.86
2023-03-27T09:18:08.207Z,2.71
2023-03-27T09:20:37.406Z,2.69
2023-03-27T09:23:10.954Z,2.69
2023-03-27T09:26:11.101Z,2.42
2023-03-27T09:29:00.148Z,2.40
2023-03-27T09:31:33.502Z,3.25
2023-03-27T09:34:08.101Z,3.28
2023-03-27T09:36:36.890Z,3.05
2023-03-27T09:39:07.825Z,3.15
2023-03-27T09:41:39.660Z,3.59
2023-03-27T09:44:10.365Z,3.53
2023-03-27T09:46:43.295Z,4.25
2023-03-27T09:49:13.522Z,3.84
2023-03-27T09:51:47.755Z,4.36
2023-03-27T09:54:23.821Z,3.12
2023-03-27T09:56:54.729Z,2.79
2023-03-27T09:59:27.405Z,2.42
2023-03-27T10:02:10.009Z,2.25
2023-03-27T10:04:37.736Z,2.23
2023-03-27T10:07:08.318Z,2.32
2023-03-27T10:10:12.475Z,2.25
2023-03-27T10:13:02.448Z,2.38
2023-03-27T10:15:51.926Z,2.65
2023-03-27T10:18:27.510Z,3.21
2023-03-27T10:21:10.211Z,3.64
2023-03-27T10:23:42.110Z,3.26
2023-03-27T10:26:15.097Z,3.08
2023-03-27T10:28:51.471Z,2.54
2023-03-27T10:31:29.620Z,2.94
2023-03-27T10:34:11.876Z,3.23
2023-03-27T10:37:23.284Z,3.76
2023-03-27T10:40:00.330Z,3.76
2023-03-27T10:42:34.480Z,3.59
2023-03-27T10:45:04.099Z,2.66
2023-03-27T10:47:33.029Z,2.74
2023-03-27T10:50:04.634Z,3.66
2023-03-27T10:52:44.650Z,3.86
2023-03-27T10:55:26.150Z,3.89
2023-03-27T10:57:55.152Z,3.84
2023-03-27T11:00:32.580Z,1.61
2023-03-27T11:03:04.032Z,1.23
2023-03-27T11:05:34.930Z,1.50
2023-03-27T11:08:12.272Z,1.79
2023-03-27T11:10:41.618Z,2.10
2023-03-27T11:13:12.603Z,2.62
2023-03-27T11:15:43.398Z,2.75
2023-03-27T11:18:33.440Z,3.17
2023-03-27T11:21:04.544Z,3.68
2023-03-27T11:23:38.532Z,4.18
2023-03-27T11:26:24.506Z,4.40
2023-03-27T11:28:56.696Z,4.21
2023-03-27T11:31:35.429Z,3.55
2023-03-27T11:34:06.163Z,3.87
2023-03-27T11:36:48.412Z,3.93
2023-03-27T11:39:24.655Z,3.59
2023-03-27T11:41:54.377Z,3.34
2023-03-27T11:44:22.993Z,2.96
2023-03-27T11:47:32.258Z,2.83
2023-03-27T11:50:17.708Z,3.48
2023-03-27T11:52:50.168Z,3.78
2023-03-27T11:55:32.666Z,3.64
2023-03-27T11:58:08.991Z,4.19
2023-03-27T12:00:49.258Z,4.06
2023-03-27T12:03:53.457Z,4.61
2023-03-27T12:06:33.946Z,4.27
2023-03-27T12:09:17.896Z,4.01
2023-03-27T12:12:15.456Z,3.25
2023-03-27T12:14:52.792Z,3.27
2023-03-27T12:17:32.946Z,3.72
2023-03-27T12:20:28.692Z,4.31
2023-03-27T12:23:15.798Z,4.57
2023-03-27T12:26:25.621Z,4.16
2023-03-27T12:29:23.889Z,3.29
2023-03-27T12:32:19.410Z,2.40
2023-03-27T12:34:51.917Z,2.39
2023-03-27T12:37:22.361Z,2.92
2023-03-27T12:39:53.519Z,3.71
2023-03-27T12:42:43.665Z,3.64
2023-03-27T12:45:18.065Z,3.88
2023-03-27T12:48:17.252Z,4.49
2023-03-27T12:50:56.114Z,5.19
2023-03-27T12:53:51.832Z,4.74
2023-03-27T12:56:35.929Z,4.19
2023-03-27T12:59:13.761Z,3.83
2023-03-27T13:02:25.180Z,3.52
2023-03-27T13:05:34.843Z,1.78
2023-03-27T13:08:14.415Z,1.02
2023-03-27T13:11:03.124Z,1.00
2023-03-27T13:13:55.620Z,1.29
2023-03-27T13:16:31.616Z,1.69
2023-03-27T13:19:15.962Z,1.98
2023-03-27T13:22:04.007Z,3.09
2023-03-27T13:24:43.314Z,3.78
2023-03-27T13:27:23.351Z,4.14
2023-03-27T13:29:53.050Z,4.03
2023-03-27T13:32:34.693Z,4.09
2023-03-27T13:35:35.134Z,4.00
2023-03-27T13:38:03.733Z,3.95
2023-03-27T13:40:56.964Z,4.80
2023-03-27T13:43:28.458Z,5.31
2023-03-27T13:46:16.293Z,4.92
2023-03-27T13:49:00.298Z,4.73
2023-03-27T13:52:16.727Z,4.61
2023-03-27T13:54:54.195Z,5.11
2023-03-27T13:57:29.840Z,4.84
2023-03-27T14:00:37.738Z,4.37
2023-03-27T14:03:56.708Z,3.51
2023-03-27T14:07:15.871Z,3.05
2023-03-27T14:10:01.494Z,2.61
2023-03-27T14:12:48.234Z,2.83
2023-03-27T14:15:38.317Z,3.67
2023-03-27T14:18:32.537Z,3.89
2023-03-27T14:21:01.846Z,4.28
2023-03-27T14:23:45.293Z,4.74
2023-03-27T14:26:24.715Z,4.38
2023-03-27T14:28:58.880Z,4.08
2023-03-27T14:31:38.504Z,3.77
2023-03-27T14:34:16.612Z,3.47
2023-03-27T14:36:49.881Z,3.59
2023-03-27T14:39:26.057Z,3.64
2023-03-27T14:42:01.895Z,3.70
2023-03-27T14:44:32.825Z,3.78
2023-03-27T14:47:08.326Z,3.63
2023-03-27T14:49:39.843Z,3.59
2023-03-27T14:52:12.019Z,3.69
2023-03-27T14:54:59.023Z,3.77
2023-03-27T14:57:34.206Z,3.65
2023-03-27T15:00:06.923Z,1.63
2023-03-27T15:02:39.384Z,1.36
2023-03-27T15:05:11.730Z,1.33
2023-03-27T15:07:44.973Z,1.09
2023-03-27T15:10:24.236Z,1.05
2023-03-27T15:13:10.617Z,1.09
2023-03-27T15:15:43.965Z,0.94
2023-03-27T15:18:15.326Z,0.56
2023-03-27T15:20:43.052Z,0.86
2023-03-27T15:23:17.056Z,1.19
2023-03-27T15:25:46.034Z,1.46
2023-03-27T15:28:17.496Z,1.36
2023-03-27T15:30:46.092Z,1.59
2023-03-27T15:33:17.339Z,1.84
2023-03-27T15:35:46.093Z,1.69
2023-03-27T15:38:17.201Z,1.58
2023-03-27T15:40:46.839Z,1.34
2023-03-27T15:43:22.036Z,1.30
2023-03-27T15:46:01.786Z,1.13
2023-03-27T15:48:35.083Z,1.11
2023-03-27T15:51:03.550Z,1.25
2023-03-27T15:53:34.098Z,1.38
2023-03-27T15:56:02.302Z,1.51
2023-03-27T15:58:32.166Z,1.20
2023-03-27T16:01:01.387Z,1.44
2023-03-27T16:03:31.436Z,1.29
2023-03-27T16:05:59.542Z,1.54
2023-03-27T16:08:30.259Z,1.74
2023-03-27T16:11:00.525Z,2.09
2023-03-27T16:13:30.202Z,1.85
2023-03-27T16:15:59.401Z,1.77
2023-03-27T16:18:29.216Z,1.88
2023-03-27T16:21:08.498Z,1.88
2023-03-27T16:23:37.314Z,1.98
2023-03-27T16:26:06.812Z,2.11
2023-03-27T16:28:34.543Z,2.38
2023-03-27T16:31:11.080Z,2.35
2023-03-27T16:33:38.888Z,2.15
2023-03-27T16:36:09.184Z,2.10
2023-03-27T16:38:40.801Z,2.16
2023-03-27T16:41:14.231Z,1.91
2023-03-27T16:43:42.261Z,1.98
2023-03-27T16:46:12.505Z,2.01
2023-03-27T16:48:40.489Z,2.00
2023-03-27T16:51:08.584Z,2.09
2023-03-27T16:53:36.406Z,2.09
2023-03-27T16:56:05.143Z,2.26
2023-03-27T16:58:34.466Z,2.19
2023-03-27T17:01:02.350Z,2.07
2023-03-27T17:03:30.132Z,1.76
2023-03-27T17:06:00.852Z,1.46
2023-03-27T17:08:30.307Z,1.41
2023-03-27T17:11:02.663Z,1.49
2023-03-27T17:13:30.715Z,1.41
2023-03-27T17:15:59.927Z,1.51
2023-03-27T17:18:28.022Z,1.50
2023-03-27T17:20:55.741Z,1.60
2023-03-27T17:23:23.596Z,1.43
2023-03-27T17:25:51.656Z,1.44
2023-03-27T17:28:19.604Z,1.44
2023-03-27T17:31:00.902Z,1.56
2023-03-27T17:33:33.817Z,1.51
2023-03-27T17:36:02.220Z,1.62
2023-03-27T17:38:30.801Z,1.71
2023-03-27T17:40:59.466Z,1.67
2023-03-27T17:43:27.817Z,1.80
2023-03-27T17:45:55.829Z,1.61
2023-03-27T17:48:23.776Z,1.65
2023-03-27T17:51:07.370Z,1.74
2023-03-27T17:53:36.701Z,2.10
2023-03-27T17:56:04.669Z,1.97
2023-03-27T17:58:34.415Z,1.72
2023-03-27T18:01:03.249Z,1.58
2023-03-27T18:03:31.171Z,1.45
2023-03-27T18:10:16.965Z,0.97
2023-03-27T18:12:44.921Z,0.91
2023-03-27T18:15:12.853Z,0.80
2023-03-27T18:17:40.642Z,0.56
2023-03-27T18:20:10.425Z,0.44
2023-03-27T18:22:38.350Z,0.85
2023-03-27T18:25:06.928Z,0.67
2023-03-27T18:27:39.990Z,0.63
2023-03-27T18:30:12.497Z,0.78
2023-03-27T18:32:41.268Z,0.80
2023-03-27T18:35:12.766Z,0.75
2023-03-27T18:37:40.841Z,0.92
2023-03-27T18:40:09.617Z,0.83
2023-03-27T18:42:39.334Z,0.84
2023-03-27T18:45:08.416Z,0.68
2023-03-27T18:47:36.588Z,1.21
2023-03-27T18:50:05.058Z,1.00
2023-03-27T18:52:33.006Z,0.91
2023-03-27T18:55:00.843Z,0.84
2023-03-27T18:57:28.620Z,0.90
2023-03-27T18:59:58.475Z,0.76
2023-03-27T19:02:26.233Z,0.67
2023-03-27T19:04:54.267Z,0.72
2023-03-27T19:07:22.075Z,0.97
2023-03-27T19:09:49.797Z,0.95
2023-03-27T19:12:17.506Z,0.84
2023-03-27T19:15:18.924Z,1.02
2023-03-27T19:18:07.796Z,0.78
2023-03-27T19:21:06.509Z,1.05
2023-03-27T19:23:45.740Z,1.10
2023-03-27T19:26:16.607Z,1.03
2023-03-27T19:28:47.625Z,1.11
2023-03-27T19:31:17.070Z,1.02
2023-03-27T19:33:45.867Z,1.02
2023-03-27T19:36:13.888Z,1.06
2023-03-27T19:38:41.833Z,1.17
2023-03-27T19:41:10.109Z,1.20
2023-03-27T19:43:37.920Z,1.35
2023-03-27T19:46:15.696Z,1.29
2023-03-27T19:48:47.369Z,1.15
2023-03-27T19:51:36.002Z,0.89
2023-03-27T19:54:03.860Z,1.08
2023-03-27T19:56:32.006Z,0.60
2023-03-27T19:58:59.750Z,1.15
2023-03-27T20:01:28.518Z,1.14
2023-03-27T20:03:58.102Z,1.26
2023-03-27T20:06:28.857Z,1.21
2023-03-27T20:08:57.904Z,1.13
2023-03-27T20:11:27.044Z,0.85
2023-03-27T20:13:56.978Z,0.65
2023-03-27T20:16:26.126Z,0.69
2023-03-27T20:19:03.197Z,0.70
2023-03-27T20:21:33.780Z,0.61
2023-03-27T20:24:01.673Z,0.53
2023-03-27T20:26:39.005Z,0.44
2023-03-27T20:29:13.122Z,0.56
2023-03-27T20:31:41.176Z,0.61
2023-03-27T20:34:09.141Z,0.63
2023-03-27T20:36:39.289Z,0.44
2023-03-27T20:39:20.761Z,0.57
2023-03-27T20:41:49.096Z,0.49
2023-03-27T20:44:16.848Z,0.37
2023-03-27T20:46:47.183Z,0.39
2023-03-27T20:49:37.636Z,0.36
2023-03-27T20:52:10.319Z,0.75
2023-03-27T20:54:38.030Z,0.75
2023-03-27T20:57:06.085Z,0.65
2023-03-27T20:59:34.018Z,0.63
2023-03-27T21:02:02.265Z,0.54
2023-03-27T21:04:31.668Z,0.86
2023-03-27T21:06:59.684Z,0.78
2023-03-27T21:09:28.834Z,0.92
2023-03-27T21:11:56.620Z,0.86
2023-03-27T21:14:24.883Z,0.69
2023-03-27T21:16:52.775Z,0.67
2023-03-27T21:19:22.106Z,0.67
2023-03-27T21:21:50.345Z,0.61
2023-03-27T21:24:19.501Z,0.55
2023-03-27T21:26:50.131Z,0.60
2023-03-27T21:29:18.361Z,0.68
2023-03-27T21:31:46.200Z,0.79
2023-03-27T21:34:14.143Z,0.62
2023-03-27T21:36:41.946Z,0.65
2023-03-27T21:39:10.858Z,0.70
2023-03-27T21:41:38.578Z,0.53
2023-03-27T21:44:07.851Z,0.48
2023-03-27T21:46:35.739Z,0.60
2023-03-27T21:49:03.499Z,0.56
2023-03-27T21:51:31.236Z,0.41
2023-03-27T21:53:58.985Z,0.56
2023-03-27T21:56:26.742Z,0.57
2023-03-27T21:58:57.373Z,0.59
2023-03-27T22:01:26.585Z,0.56
2023-03-27T22:03:54.323Z,0.56
2023-03-27T22:06:22.047Z,0.51
2023-03-27T22:08:49.757Z,0.47
2023-03-27T22:11:17.488Z,0.62
2023-03-27T22:13:46.572Z,0.47
2023-03-27T22:16:15.774Z,0.54
2023-03-27T22:18:45.210Z,0.54
2023-03-27T22:21:17.377Z,0.43
2023-03-27T22:23:45.320Z,0.51
2023-03-27T22:26:13.207Z,0.52
2023-03-27T22:28:41.038Z,0.40
2023-03-27T22:31:09.247Z,0.46
2023-03-27T22:33:37.172Z,0.41
2023-03-27T22:36:07.169Z,0.48
2023-03-27T22:38:34.888Z,0.40
2023-03-27T22:41:02.662Z,0.43
2023-03-27T22:43:30.360Z,0.54
2023-03-27T22:45:58.726Z,0.47
2023-03-27T22:48:26.524Z,0.42
2023-03-27T22:50:55.200Z,0.46
2023-03-27T22:53:24.569Z,0.53
2023-03-27T22:55:52.480Z,0.49
2023-03-27T22:58:20.484Z,0.40
2023-03-27T23:00:48.428Z,0.46
2023-03-27T23:03:16.392Z,0.45
2023-03-27T23:05:45.341Z,0.45
2023-03-27T23:08:13.035Z,0.56
2023-03-27T23:10:42.343Z,0.57
2023-03-27T23:13:10.026Z,0.48
2023-03-27T23:15:37.766Z,0.45
2023-03-27T23:18:05.727Z,0.52
2023-03-27T23:20:33.535Z,0.57
2023-03-27T23:23:01.386Z,0.43
2023-03-27T23:25:29.114Z,0.62
2023-03-27T23:27:58.254Z,0.51
2023-03-27T23:30:25.976Z,0.45
2023-03-27T23:32:53.767Z,0.39
2023-03-27T23:35:21.599Z,0.51
2023-03-27T23:37:49.325Z,0.57
2023-03-27T23:40:17.067Z,0.49
2023-03-27T23:42:44.852Z,0.54
2023-03-27T23:45:13.980Z,0.50
2023-03-27T23:47:41.706Z,0.52
2023-03-27T23:50:09.911Z,0.60
2023-03-27T23:52:37.643Z,0.64
2023-03-27T23:55:06.192Z,0.60
2023-03-27T23:57:33.913Z,0.62
